Flight Track Log - Related Links

Times and Time Zones

All times are in EDT time to prevent confusion due to time zone crossing. See the CPZ5841 flight status page for this flight to view local times or setup timezone preferences in your user account.

Time Position Orientation Groundspeed Altitude Reporting Facility
EDT Latitude Longitude Course Direction KTS MPH feet Rate Location/Type
Wed 03:09:00 PM 37.6656 -122.3697 147° Southeast 155 178 2,000  Level Oakland Center
Wed 03:10:01 PM 37.7156 -122.3922 340° North 209 241 3,900 2,439 Climbing Oakland Center
Wed 03:11:00 PM 37.3234 -122.0366 136° Southeast  Level Estimated
Wed 03:11:03 PM 37.6672 -122.4486 223° Southwest 265 305 7,000  Level Oakland Center
Wed 03:12:00 PM 37.2494 -121.9524 132° Southeast  Level Estimated
Wed 03:12:04 PM 37.5889 -122.4250 167° South 296 341 9,900  Level Oakland Center
Wed 03:13:00 PM 37.1659 -121.8835 147° Southeast  Level FlightAware Approximate
Wed 03:13:06 PM 37.5058 -122.3772 155° Southeast 331 381 12,000  Level Oakland Center
Wed 03:14:07 PM 37.4267 -122.3078 145° Southeast 356 410 14,200 2,049 Climbing Oakland Center
Wed 03:15:09 PM 37.3556 -122.2114 133° Southeast 376 433 16,200 2,049 Climbing Oakland Center
Wed 03:16:10 PM 37.2656 -122.0892 133° Southeast 400 460 18,400 1,918 Climbing Oakland Center
Wed 03:17:11 PM 37.1864 -121.9836 133° Southeast 417 480 20,100 1,707 Climbing Oakland Center
Wed 03:18:13 PM 37.1028 -121.8719 133° Southeast 440 506 21,900 1,610 Climbing Oakland Center
Wed 03:19:14 PM 37.0183 -121.7586 133° Southeast 445 512 23,400 1,366 Climbing Oakland Center
Wed 03:20:16 PM 36.9300 -121.6419 133° Southeast 461 531 24,700 1,268 Climbing Oakland Center
Wed 03:21:17 PM 36.8400 -121.5217 133° Southeast 474 545 26,000 1,220 Climbing Oakland Center
Wed 03:22:19 PM 36.7492 -121.4025 134° Southeast 485 558 27,200 1,220 Climbing Oakland Center
Wed 03:23:20 PM 36.6361 -121.2519 133° Southeast 496 571 28,500 885 Climbing Oakland Center
Wed 03:24:21 PM 36.5397 -121.1269 134° Southeast 501 577 29,000 244 Climbing Oakland Center
Wed 03:25:23 PM 36.4422 -121.0006 134° Southeast 505 581 29,000  Level Oakland Center
Wed 03:26:24 PM 36.3467 -120.8753 133° Southeast 503 579 29,000  Level Oakland Center
Wed 03:27:26 PM 36.2489 -120.7489 134° Southeast 505 581 29,000  Level Oakland Center
Wed 03:28:27 PM 36.1519 -120.6242 134° Southeast 504 580 29,000  Level Oakland Center
Wed 03:29:28 PM 36.0542 -120.4986 134° Southeast 505 581 29,000  Level Oakland Center
Wed 03:30:30 PM 35.9578 -120.3739 134° Southeast 503 579 29,000  Level Oakland Center
Wed 03:31:31 PM 35.8594 -120.2486 134° Southeast 505 581 29,000  Level Oakland Center
Wed 03:32:33 PM 35.7625 -120.1250 134° Southeast 501 577 29,000  Level Oakland Center
Wed 03:33:34 PM 35.6642 -120.0011 134° Southeast 501 577 29,000  Level Oakland Center
Wed 03:34:35 PM 35.5300 -119.8769 143° Southeast 499 574 29,000  Level Oakland Center
Wed 03:35:37 PM 35.4167 -119.7783 145° Southeast 497 572 29,000  Level Oakland Center
Wed 03:36:38 PM 35.3019 -119.6797 145° Southeast 498 573 29,000  Level Oakland Center
Wed 03:37:39 PM 35.1883 -119.5831 145° Southeast 497 572 29,000  Level Oakland Center
Wed 03:38:41 PM 35.0767 -119.4878 145° Southeast 491 565 29,000  Level Oakland Center
Wed 03:39:42 PM 34.9644 -119.3936 145° Southeast 490 564 29,000 -439 Level Oakland Center
Wed 03:40:44 PM 34.8556 -119.3008 145° Southeast 485 558 28,100 -1,561 Descending Oakland Center
Wed 03:41:45 PM 34.7494 -119.2114 145° Southeast 474 545 25,800 -2,149 Descending Oakland Center
Wed 03:47:12 PM 34.2167 -118.8833 153° Southeast 321 369 14,200 -1,938 Descending Southern California TRACON
Wed 03:48:12 PM 34.1333 -118.9000 189° South 282 325 13,300 -1,200 Descending Southern California TRACON
Wed 03:49:12 PM 34.0667 -118.8667 157° South 266 306 11,800 -1,350 Descending Southern California TRACON
Wed 03:50:12 PM 34.0333 -118.8000 121° Southeast 275 316 10,600 -857 Descending Southern California TRACON
Wed 03:51:18 PM 34.0500 -118.7000 79° East 259 298 10,000 -520 Descending Southern California TRACON
Wed 03:52:19 PM 34.0333 -118.6167 104° East 257 296 9,500 -843 Descending Southern California TRACON
Wed 03:53:19 PM 34.0167 -118.5333 104° East 251 289 8,300 -1,067 Descending Southern California TRACON
Wed 03:54:34 PM 34.0114 -118.4389 94° East 222 255 7,100 -1,007 Descending Los Angeles Center
Wed 03:55:36 PM 34.0158 -118.3694 86° East 208 239 6,000 -1,016 Descending Los Angeles Center
Wed 03:56:38 PM 34.0206 -118.3050 85° East 198 228 5,000 -532 Descending Los Angeles Center
Wed 03:57:40 PM 34.0242 -118.2414 86° East 192 221 4,900 -629 Descending Los Angeles Center
Wed 03:58:42 PM 33.9756 -118.2303 169° South 196 226 3,700 -1,248 Descending Los Angeles Center
Wed 03:59:45 PM 33.9636 -118.2883 256° West 188 216 2,300 -1,248 Descending Los Angeles Center
Wed 04:00:47 PM 33.9583 -118.3436 263° West 154 177 1,100 -871 Descending Los Angeles Center
Wed 04:01:49 PM 33.9544 -118.3858 264° West 137 158 500 -484 Descending Los Angeles Center
Wed 04:02:51 PM 33.9494 -118.4261 261° West 126 145 100 -387 Descending Los Angeles Center

Login

Don't have an account? Register now (free) for customized features, flight alerts, and more!